Etusivu
METAR-TAF:

METAR-TAF

Lentoasemat :

Boothville-Venice, Louisiana, Yhdysvallat

Leveyspiiri: 29-20N, Pituuspiiri: 089-24W, korkeus merenpinnasta: 0 m

Tämänhetkinen sää

Tämä raportti tehtiin 31 minuuttia sitten, kello 06.51 UTC
Tuuli 3 kn idästä/kaakosta
Lämpötila 26°C
Kosteus 94%
Ilmanpaine 1015 hPa
Näkyvyys: 12.9 km
selkeää

METAR: KBVE 170651Z AUTO 12003KT 8SM CLR 26/25 A2998 RMK AO2 SLP150 T02610250

Aika: 02:22 (07:22 UTC)


TAF: puuttuu

Säähavainnot ja -ennusteet yli 4000 lentoasemalta (METAR- ja TAF-raportit).

Käytössä olevat sääasemat on merkitty karttaan keltaisilla ja punaisilla pisteillä.

Aseta hiiri pisteen päälle nähdäksesi sääaseman nimen.

Klikkaa sitten nähdäksesi säähavainnot ja -ennusteet.

Kartan vaihtaminen: klikkaa mustalla rastilla varustettuja vihreitä pisteitä, niin voit zoomata sisään; viivalla varustettua vihreää pistettä, niin voit zoomata ulos tai vihreitä nuolia, niin pääset viereisille kartoille.


METAR-TAF: